createdAt,value
2023-03-13T00:02:33.354Z,69.39
2023-03-13T00:06:40.251Z,69.17
2023-03-13T00:10:43.733Z,68.91
2023-03-13T00:14:46.984Z,69.26
2023-03-13T00:18:51.967Z,69.71
2023-03-13T00:22:56.745Z,69.68
2023-03-13T00:27:03.341Z,69.40
2023-03-13T00:31:08.513Z,70.10
2023-03-13T00:35:11.602Z,69.97
2023-03-13T00:39:18.652Z,69.62
2023-03-13T00:43:21.752Z,70.02
2023-03-13T00:47:24.992Z,69.54
2023-03-13T00:51:29.081Z,69.88
2023-03-13T00:55:33.780Z,69.63
2023-03-13T00:59:36.990Z,69.68
2023-03-13T01:03:41.583Z,69.12
2023-03-13T01:07:45.028Z,69.28
2023-03-13T01:11:50.520Z,70.01
2023-03-13T01:15:53.749Z,69.78
2023-03-13T01:19:57.874Z,69.53
2023-03-13T01:24:01.333Z,70.24
2023-03-13T01:28:06.426Z,70.89
2023-03-13T01:32:09.515Z,70.67
2023-03-13T01:36:13.876Z,70.97
2023-03-13T01:40:17.114Z,71.48
2023-03-13T01:44:25.636Z,70.68
2023-03-13T01:48:37.023Z,70.19
2023-03-13T01:52:40.297Z,69.94
2023-03-13T01:56:48.762Z,69.83
2023-03-13T02:00:53.660Z,70.51
2023-03-13T02:05:00.417Z,70.43
2023-03-13T02:09:06.865Z,70.45
2023-03-13T02:13:14.251Z,70.44
2023-03-13T02:17:19.597Z,70.58
2023-03-13T02:21:36.275Z,70.45
2023-03-13T02:25:45.348Z,70.80
2023-03-13T02:29:48.888Z,71.52
2023-03-13T02:33:52.411Z,71.24
2023-03-13T02:37:59.072Z,70.84
2023-03-13T02:42:05.080Z,70.86
2023-03-13T02:46:11.645Z,70.89
2023-03-13T02:50:15.916Z,70.46
2023-03-13T02:54:22.804Z,70.35
2023-03-13T02:58:27.535Z,70.96
2023-03-13T03:02:30.740Z,70.94
2023-03-13T03:06:33.985Z,71.41
2023-03-13T03:10:38.322Z,72.34
2023-03-13T03:14:42.663Z,72.07
2023-03-13T03:18:46.319Z,72.19
2023-03-13T03:22:49.445Z,71.54
2023-03-13T03:26:52.675Z,71.94
2023-03-13T03:30:57.603Z,72.05
2023-03-13T03:35:00.952Z,71.97
2023-03-13T03:39:04.055Z,71.10
2023-03-13T03:43:07.745Z,70.94
2023-03-13T03:47:14.375Z,71.15
2023-03-13T03:51:17.870Z,70.93
2023-03-13T03:55:21.171Z,70.51
2023-03-13T03:59:24.609Z,70.63
2023-03-13T04:03:29.313Z,70.29
2023-03-13T04:07:32.556Z,70.16
2023-03-13T04:11:35.851Z,70.19
2023-03-13T04:15:39.948Z,69.88
2023-03-13T04:19:44.826Z,70.34
2023-03-13T04:23:48.041Z,69.88
2023-03-13T04:27:51.135Z,70.28
2023-03-13T04:31:54.336Z,71.08
2023-03-13T04:35:59.031Z,70.66
2023-03-13T04:40:03.067Z,71.52
2023-03-13T04:44:06.072Z,71.95
2023-03-13T04:48:09.453Z,71.86
2023-03-13T04:52:15.925Z,71.89
2023-03-13T04:56:41.195Z,71.59
2023-03-13T05:00:45.621Z,71.83
2023-03-13T05:04:50.578Z,71.83
2023-03-13T05:08:56.580Z,72.45
2023-03-13T05:12:59.737Z,72.70
2023-03-13T05:17:02.985Z,72.64
2023-03-13T05:21:06.849Z,73.21
2023-03-13T05:25:11.914Z,72.51
2023-03-13T05:29:15.180Z,72.00
2023-03-13T05:33:19.770Z,71.81
2023-03-13T05:37:23.043Z,71.31
2023-03-13T05:41:27.631Z,71.44
2023-03-13T05:45:31.231Z,71.01
2023-03-13T05:49:34.338Z,71.16
2023-03-13T05:53:39.201Z,70.66
2023-03-13T05:57:47.788Z,71.07
2023-03-13T06:01:51.132Z,71.32
2023-03-13T06:05:59.054Z,71.22
2023-03-13T06:10:02.424Z,71.91
2023-03-13T06:14:06.639Z,71.41
2023-03-13T06:18:09.841Z,71.11
2023-03-13T06:22:13.055Z,71.38
2023-03-13T06:26:16.798Z,71.41
2023-03-13T06:30:30.401Z,70.62
2023-03-13T06:34:33.686Z,71.17
2023-03-13T06:38:37.061Z,70.47
2023-03-13T06:42:40.130Z,70.42
2023-03-13T06:46:44.563Z,69.69
2023-03-13T06:50:47.964Z,70.00
2023-03-13T06:54:51.125Z,70.22
2023-03-13T06:58:54.372Z,70.36
2023-03-13T07:02:58.720Z,69.71
2023-03-13T07:07:01.903Z,70.06
2023-03-13T07:11:06.950Z,70.59
2023-03-13T07:15:11.732Z,70.40
2023-03-13T07:19:17.985Z,70.77
2023-03-13T07:23:21.463Z,70.16
2023-03-13T07:27:24.686Z,68.91
2023-03-13T07:31:28.376Z,67.94
2023-03-13T07:35:32.743Z,67.82
2023-03-13T07:39:36.480Z,67.80
2023-03-13T07:43:39.366Z,68.02
2023-03-13T07:47:42.517Z,68.00
2023-03-13T07:51:48.341Z,66.29
2023-03-13T07:55:59.461Z,66.95
2023-03-13T08:00:05.516Z,66.83
2023-03-13T08:04:08.867Z,65.97
2023-03-13T08:08:13.318Z,66.15
2023-03-13T08:12:16.536Z,65.08
2023-03-13T08:16:21.742Z,64.08
2023-03-13T08:20:25.025Z,63.86
2023-03-13T08:24:29.417Z,62.50
2023-03-13T08:28:32.651Z,63.24
2023-03-13T08:32:36.003Z,62.60
2023-03-13T08:36:39.670Z,61.70
2023-03-13T08:40:43.899Z,62.47
2023-03-13T08:44:46.835Z,61.98
2023-03-13T08:48:51.145Z,61.86
2023-03-13T08:52:54.322Z,60.33
2023-03-13T08:56:59.930Z,59.58
2023-03-13T09:01:04.788Z,59.96
2023-03-13T09:05:09.278Z,59.58
2023-03-13T09:09:13.320Z,60.77
2023-03-13T09:13:17.806Z,59.74
2023-03-13T09:17:21.562Z,59.16
2023-03-13T09:21:26.491Z,59.21
2023-03-13T09:25:29.868Z,58.25
2023-03-13T09:29:38.163Z,58.46
2023-03-13T09:37:50.214Z,58.18
2023-03-13T09:41:58.972Z,58.54
2023-03-13T09:46:07.910Z,58.85
2023-03-13T09:50:16.167Z,58.73
2023-03-13T09:54:26.515Z,58.65
2023-03-13T09:58:32.902Z,58.58
2023-03-13T10:02:38.714Z,58.89
2023-03-13T10:06:45.728Z,58.01
2023-03-13T10:10:55.444Z,58.24
2023-03-13T10:15:39.116Z,59.09
2023-03-13T10:19:44.819Z,58.51
2023-03-13T10:23:53.796Z,57.46
2023-03-13T10:27:58.637Z,57.01
2023-03-13T10:32:03.141Z,57.59
2023-03-13T10:36:10.547Z,57.27
2023-03-13T10:40:15.757Z,56.20
2023-03-13T10:44:21.326Z,54.86
2023-03-13T10:48:26.558Z,54.85
2023-03-13T10:52:35.362Z,55.75
2023-03-13T10:56:38.354Z,54.60
2023-03-13T11:00:42.973Z,54.55
2023-03-13T11:04:49.484Z,54.84
2023-03-13T11:09:00.884Z,54.60
2023-03-13T11:13:04.629Z,53.64
2023-03-13T11:17:16.548Z,54.17
2023-03-13T11:21:25.840Z,53.50
2023-03-13T11:25:37.761Z,53.13
2023-03-13T11:29:50.484Z,54.06
2023-03-13T11:33:59.562Z,53.35
2023-03-13T11:38:08.726Z,52.13
2023-03-13T11:42:34.448Z,54.33
2023-03-13T11:46:51.056Z,53.23
2023-03-13T11:51:00.195Z,51.50
2023-03-13T11:55:30.915Z,54.31
2023-03-13T11:59:43.941Z,53.39
2023-03-13T12:03:58.091Z,52.76
2023-03-13T12:08:05.263Z,51.35
2023-03-13T12:12:19.577Z,49.39
2023-03-13T12:16:32.191Z,47.43
2023-03-13T12:20:40.814Z,53.34
2023-03-13T12:24:51.755Z,46.08
2023-03-13T12:29:07.668Z,47.39
2023-03-13T12:33:23.626Z,46.47
2023-03-13T12:37:35.746Z,43.81
2023-03-13T12:41:43.640Z,44.36
2023-03-13T12:46:04.248Z,44.93
2023-03-13T12:50:32.789Z,45.88
2023-03-13T12:54:48.959Z,44.86
2023-03-13T12:58:56.187Z,44.77
2023-03-13T13:03:17.938Z,46.57
2023-03-13T13:07:26.818Z,46.79
2023-03-13T13:11:58.141Z,48.49
2023-03-13T13:16:03.625Z,45.91
2023-03-13T13:20:38.146Z,47.11
2023-03-13T13:24:50.228Z,45.42
2023-03-13T13:28:54.031Z,45.70
2023-03-13T13:33:18.655Z,46.09
2023-03-13T13:37:30.831Z,46.74
2023-03-13T13:42:20.077Z,47.70
2023-03-13T13:46:29.413Z,45.90
2023-03-13T13:50:32.992Z,45.18
2023-03-13T13:54:56.772Z,47.64
2023-03-13T13:59:03.678Z,44.65
2023-03-13T14:03:20.686Z,46.70
2023-03-13T14:07:30.794Z,44.74
2023-03-13T14:11:38.459Z,43.16
2023-03-13T14:15:45.490Z,43.60
2023-03-13T14:19:51.212Z,42.48
2023-03-13T14:23:54.665Z,42.77
2023-03-13T14:27:58.133Z,42.75
2023-03-13T14:32:01.915Z,42.40
2023-03-13T14:36:07.569Z,42.57
2023-03-13T14:40:20.607Z,43.75
2023-03-13T14:44:26.505Z,44.38
2023-03-13T14:48:32.906Z,44.42
2023-03-13T14:52:40.236Z,44.15
2023-03-13T14:56:43.894Z,44.12
2023-03-13T15:00:49.078Z,44.56
2023-03-13T15:04:59.546Z,45.69
2023-03-13T15:09:20.447Z,45.69
2023-03-13T15:13:26.269Z,43.77
2023-03-13T15:17:30.394Z,43.53
2023-03-13T15:21:35.733Z,43.19
2023-03-13T15:25:41.143Z,43.60
2023-03-13T15:29:44.801Z,43.79
2023-03-13T15:33:47.811Z,42.76
2023-03-13T15:37:51.008Z,42.93
2023-03-13T15:41:56.397Z,42.20
2023-03-13T15:46:00.014Z,41.70
2023-03-13T15:50:03.056Z,42.43
2023-03-13T15:54:06.688Z,42.38
2023-03-13T15:58:13.457Z,42.90
2023-03-13T16:02:19.048Z,42.84
2023-03-13T16:06:31.251Z,42.88
2023-03-13T16:10:35.310Z,43.16
2023-03-13T16:14:40.893Z,43.02
2023-03-13T16:18:44.032Z,42.17
2023-03-13T16:22:47.950Z,42.07
2023-03-13T16:26:51.202Z,42.43
2023-03-13T16:30:57.451Z,43.59
2023-03-13T16:35:00.849Z,43.88
2023-03-13T16:39:09.429Z,44.88
2023-03-13T16:43:14.005Z,45.16
2023-03-13T16:47:23.513Z,45.99
2023-03-13T16:51:28.709Z,46.05
2023-03-13T16:55:37.007Z,46.69
2023-03-13T16:59:40.564Z,47.04
2023-03-13T17:03:44.861Z,47.38
2023-03-13T17:07:50.257Z,47.67
2023-03-13T17:11:53.659Z,47.62
2023-03-13T17:15:57.101Z,48.00
2023-03-13T17:20:01.969Z,48.34
2023-03-13T17:24:07.597Z,48.44
2023-03-13T17:28:14.515Z,48.59
2023-03-13T17:32:18.007Z,48.83
2023-03-13T17:36:24.817Z,49.29
2023-03-13T17:40:31.471Z,49.54
2023-03-13T17:44:34.902Z,50.16
2023-03-13T17:48:38.324Z,50.21
2023-03-13T17:52:43.040Z,50.81
2023-03-13T17:56:47.021Z,51.00
2023-03-13T18:00:50.996Z,51.31
2023-03-13T18:04:55.071Z,51.63
2023-03-13T18:09:08.845Z,51.39
2023-03-13T18:13:12.237Z,51.59
2023-03-13T18:17:17.637Z,51.96
2023-03-13T18:21:21.511Z,51.81
2023-03-13T18:25:26.251Z,52.20
2023-03-13T18:29:29.873Z,52.40
2023-03-13T18:33:32.877Z,51.96
2023-03-13T18:37:36.628Z,51.81
2023-03-13T18:41:41.452Z,51.47
2023-03-13T18:45:44.543Z,51.29
2023-03-13T18:49:49.409Z,51.62
2023-03-13T18:53:53.098Z,51.86
2023-03-13T18:57:58.538Z,51.49
2023-03-13T19:02:02.031Z,52.11
2023-03-13T19:06:17.864Z,52.07
2023-03-13T19:10:24.706Z,52.84
2023-03-13T19:14:29.470Z,53.18
2023-03-13T19:18:33.081Z,53.58
2023-03-13T19:22:36.089Z,53.76
2023-03-13T19:26:41.711Z,53.99
2023-03-13T19:31:04.461Z,53.54
2023-03-13T19:35:08.632Z,54.25
2023-03-13T19:39:15.518Z,54.31
2023-03-13T19:43:18.399Z,54.38
2023-03-13T19:47:23.374Z,54.44
2023-03-13T19:51:28.925Z,54.56
2023-03-13T19:55:32.181Z,54.62
2023-03-13T19:59:38.969Z,54.94
2023-03-13T20:03:44.600Z,54.59
2023-03-13T20:07:49.387Z,54.62
2023-03-13T20:11:52.773Z,54.90
2023-03-13T20:15:55.801Z,54.97
2023-03-13T20:20:02.048Z,55.15
2023-03-13T20:24:05.573Z,55.55
2023-03-13T20:28:09.249Z,55.82
2023-03-13T20:32:13.442Z,56.04
2023-03-13T20:36:20.211Z,56.54
2023-03-13T20:40:23.180Z,56.79
2023-03-13T20:44:26.520Z,56.96
2023-03-13T20:48:30.220Z,57.59
2023-03-13T20:52:34.833Z,57.22
2023-03-13T20:56:41.341Z,56.96
2023-03-13T21:00:45.157Z,56.46
2023-03-13T21:04:48.166Z,56.62
2023-03-13T21:08:52.782Z,56.52
2023-03-13T21:12:56.285Z,56.79
2023-03-13T21:16:59.444Z,56.80
2023-03-13T21:21:05.957Z,56.54
2023-03-13T21:25:13.403Z,56.36
2023-03-13T21:29:16.256Z,56.26
2023-03-13T21:33:22.377Z,56.30
2023-03-13T21:41:31.035Z,56.53
2023-03-13T21:45:34.711Z,56.68
2023-03-13T21:49:37.838Z,56.39
2023-03-13T21:53:42.290Z,56.58
2023-03-13T21:57:46.957Z,56.61
2023-03-13T22:01:50.154Z,56.85
2023-03-13T22:05:53.630Z,57.86
2023-03-13T22:09:56.787Z,57.73
2023-03-13T22:14:01.655Z,57.45
2023-03-13T22:18:05.018Z,57.41
2023-03-13T22:22:08.585Z,57.41
2023-03-13T22:26:12.436Z,57.81
2023-03-13T22:30:17.182Z,57.51
2023-03-13T22:34:20.189Z,57.74
2023-03-13T22:38:24.225Z,58.32
2023-03-13T22:42:27.111Z,59.00
2023-03-13T22:46:31.869Z,58.95
2023-03-13T22:50:35.238Z,59.17
2023-03-13T22:54:38.568Z,58.85
2023-03-13T22:58:42.442Z,59.44
2023-03-13T23:02:47.214Z,59.57
2023-03-13T23:06:50.346Z,60.40
2023-03-13T23:10:53.888Z,59.96
2023-03-13T23:14:59.597Z,60.05
2023-03-13T23:19:05.247Z,59.84
2023-03-13T23:23:08.189Z,59.94
2023-03-13T23:27:11.635Z,60.18
2023-03-13T23:31:16.907Z,60.21
2023-03-13T23:35:22.379Z,61.00
2023-03-13T23:39:25.602Z,61.26
2023-03-13T23:43:28.852Z,61.55
2023-03-13T23:47:31.811Z,62.12
2023-03-13T23:51:36.403Z,62.11
2023-03-13T23:55:41.829Z,62.74
2023-03-13T23:59:45.229Z,61.97
